sensor_id;sensor_type;location;lat;lon;timestamp;temperature;humidity
15384;DHT22;7790;53.022;12.968;2022-09-27T00:00:23;20.00;54.00
15384;DHT22;7790;53.022;12.968;2022-09-27T00:04:24;20.00;54.10
15384;DHT22;7790;53.022;12.968;2022-09-27T00:08:25;20.00;54.10
15384;DHT22;7790;53.022;12.968;2022-09-27T00:12:26;20.00;54.20
15384;DHT22;7790;53.022;12.968;2022-09-27T00:16:30;19.90;54.10
15384;DHT22;7790;53.022;12.968;2022-09-27T00:20:33;19.90;54.20
15384;DHT22;7790;53.022;12.968;2022-09-27T00:24:34;20.00;54.30
15384;DHT22;7790;53.022;12.968;2022-09-27T00:28:35;19.90;54.80
15384;DHT22;7790;53.022;12.968;2022-09-27T00:32:36;19.90;54.30
15384;DHT22;7790;53.022;12.968;2022-09-27T00:36:37;19.90;54.30
15384;DHT22;7790;53.022;12.968;2022-09-27T00:40:38;19.90;54.40
15384;DHT22;7790;53.022;12.968;2022-09-27T00:48:40;19.90;54.40
15384;DHT22;7790;53.022;12.968;2022-09-27T00:56:55;19.90;54.40
15384;DHT22;7790;53.022;12.968;2022-09-27T01:01:00;19.90;54.40
15384;DHT22;7790;53.022;12.968;2022-09-27T01:05:03;19.90;54.40
15384;DHT22;7790;53.022;12.968;2022-09-27T01:09:09;19.80;54.40
15384;DHT22;7790;53.022;12.968;2022-09-27T01:13:25;19.90;54.50
15384;DHT22;7790;53.022;12.968;2022-09-27T01:22:10;19.80;54.50
15384;DHT22;7790;53.022;12.968;2022-09-27T01:43:12;19.80;54.60
15384;DHT22;7790;53.022;12.968;2022-09-27T01:47:19;19.80;54.70
15384;DHT22;7790;53.022;12.968;2022-09-27T01:51:31;19.80;54.70
15384;DHT22;7790;53.022;12.968;2022-09-27T01:55:36;19.80;54.80
15384;DHT22;7790;53.022;12.968;2022-09-27T02:00:00;19.80;54.70
15384;DHT22;7790;53.022;12.968;2022-09-27T02:04:18;19.80;54.80
15384;DHT22;7790;53.022;12.968;2022-09-27T02:09:15;19.80;54.80
15384;DHT22;7790;53.022;12.968;2022-09-27T02:13:53;19.80;54.80
15384;DHT22;7790;53.022;12.968;2022-09-27T02:18:28;19.80;54.70
15384;DHT22;7790;53.022;12.968;2022-09-27T02:26:40;19.80;54.70
15384;DHT22;7790;53.022;12.968;2022-09-27T02:30:43;19.80;54.70
15384;DHT22;7790;53.022;12.968;2022-09-27T02:34:56;19.80;54.70
15384;DHT22;7790;53.022;12.968;2022-09-27T02:38:58;19.80;54.60
15384;DHT22;7790;53.022;12.968;2022-09-27T02:43:03;19.80;54.60
15384;DHT22;7790;53.022;12.968;2022-09-27T02:47:46;19.80;54.50
15384;DHT22;7790;53.022;12.968;2022-09-27T02:56:30;19.70;54.50
15384;DHT22;7790;53.022;12.968;2022-09-27T03:01:35;19.70;54.50
15384;DHT22;7790;53.022;12.968;2022-09-27T03:05:59;19.70;54.50
15384;DHT22;7790;53.022;12.968;2022-09-27T03:10:02;19.70;54.60
15384;DHT22;7790;53.022;12.968;2022-09-27T03:14:02;19.70;54.60
15384;DHT22;7790;53.022;12.968;2022-09-27T03:18:04;19.70;54.60
15384;DHT22;7790;53.022;12.968;2022-09-27T03:22:23;19.70;54.60
15384;DHT22;7790;53.022;12.968;2022-09-27T03:26:24;19.70;54.60
15384;DHT22;7790;53.022;12.968;2022-09-27T03:30:25;19.70;54.70
15384;DHT22;7790;53.022;12.968;2022-09-27T03:34:26;19.70;54.70
15384;DHT22;7790;53.022;12.968;2022-09-27T03:38:27;19.70;54.70
15384;DHT22;7790;53.022;12.968;2022-09-27T03:42:28;19.70;54.80
15384;DHT22;7790;53.022;12.968;2022-09-27T03:46:29;19.70;54.70
15384;DHT22;7790;53.022;12.968;2022-09-27T03:50:30;19.70;54.80
15384;DHT22;7790;53.022;12.968;2022-09-27T03:54:31;19.70;54.80
15384;DHT22;7790;53.022;12.968;2022-09-27T03:58:32;19.70;54.80
15384;DHT22;7790;53.022;12.968;2022-09-27T04:02:34;19.60;54.80
15384;DHT22;7790;53.022;12.968;2022-09-27T04:06:54;19.70;55.00
15384;DHT22;7790;53.022;12.968;2022-09-27T04:10:56;19.60;54.80
15384;DHT22;7790;53.022;12.968;2022-09-27T04:14:58;19.60;54.90
15384;DHT22;7790;53.022;12.968;2022-09-27T04:19:28;19.60;54.90
15384;DHT22;7790;53.022;12.968;2022-09-27T04:23:41;19.60;54.90
15384;DHT22;7790;53.022;12.968;2022-09-27T04:27:45;19.60;55.00
15384;DHT22;7790;53.022;12.968;2022-09-27T04:31:46;19.60;55.00
15384;DHT22;7790;53.022;12.968;2022-09-27T04:35:56;19.60;55.00
15384;DHT22;7790;53.022;12.968;2022-09-27T04:40:33;19.60;55.00
15384;DHT22;7790;53.022;12.968;2022-09-27T04:44:35;19.60;55.00
15384;DHT22;7790;53.022;12.968;2022-09-27T04:48:36;19.60;55.00
15384;DHT22;7790;53.022;12.968;2022-09-27T04:52:38;19.60;55.00
15384;DHT22;7790;53.022;12.968;2022-09-27T04:56:39;19.60;54.90
15384;DHT22;7790;53.022;12.968;2022-09-27T05:00:41;19.60;54.90
15384;DHT22;7790;53.022;12.968;2022-09-27T05:05:02;19.60;54.90
15384;DHT22;7790;53.022;12.968;2022-09-27T05:09:09;19.50;54.90
15384;DHT22;7790;53.022;12.968;2022-09-27T05:13:21;19.50;54.90
15384;DHT22;7790;53.022;12.968;2022-09-27T05:17:22;19.50;54.90
15384;DHT22;7790;53.022;12.968;2022-09-27T05:21:28;19.50;54.90
15384;DHT22;7790;53.022;12.968;2022-09-27T05:25:32;19.60;55.00
15384;DHT22;7790;53.022;12.968;2022-09-27T05:29:34;19.60;55.50
15384;DHT22;7790;53.022;12.968;2022-09-27T05:33:58;19.60;55.10
15384;DHT22;7790;53.022;12.968;2022-09-27T05:38:16;19.50;55.10
15384;DHT22;7790;53.022;12.968;2022-09-27T05:42:21;19.50;55.10
15384;DHT22;7790;53.022;12.968;2022-09-27T05:46:23;19.50;55.10
15384;DHT22;7790;53.022;12.968;2022-09-27T05:50:25;19.50;55.10
15384;DHT22;7790;53.022;12.968;2022-09-27T05:54:26;19.50;55.10
15384;DHT22;7790;53.022;12.968;2022-09-27T05:58:29;19.50;55.20
15384;DHT22;7790;53.022;12.968;2022-09-27T06:02:44;19.50;55.10
15384;DHT22;7790;53.022;12.968;2022-09-27T06:07:03;19.50;55.10
15384;DHT22;7790;53.022;12.968;2022-09-27T06:11:09;19.50;55.60
15384;DHT22;7790;53.022;12.968;2022-09-27T06:15:12;19.50;55.90
15384;DHT22;7790;53.022;12.968;2022-09-27T06:19:17;19.50;55.40
15384;DHT22;7790;53.022;12.968;2022-09-27T06:23:20;19.50;55.50
15384;DHT22;7790;53.022;12.968;2022-09-27T06:27:23;19.50;55.50
15384;DHT22;7790;53.022;12.968;2022-09-27T06:31:46;19.50;55.50
15384;DHT22;7790;53.022;12.968;2022-09-27T06:36:19;19.50;55.50
15384;DHT22;7790;53.022;12.968;2022-09-27T06:40:21;19.50;55.40
15384;DHT22;7790;53.022;12.968;2022-09-27T06:44:51;19.40;55.50
15384;DHT22;7790;53.022;12.968;2022-09-27T06:49:11;19.50;55.50
15384;DHT22;7790;53.022;12.968;2022-09-27T06:53:15;19.50;55.50
15384;DHT22;7790;53.022;12.968;2022-09-27T06:57:16;19.50;55.40
15384;DHT22;7790;53.022;12.968;2022-09-27T07:01:38;19.50;55.30
15384;DHT22;7790;53.022;12.968;2022-09-27T07:06:01;19.70;55.30
15384;DHT22;7790;53.022;12.968;2022-09-27T07:10:27;19.80;55.40
15384;DHT22;7790;53.022;12.968;2022-09-27T07:14:28;19.90;55.70
15384;DHT22;7790;53.022;12.968;2022-09-27T07:18:31;20.10;55.80
15384;DHT22;7790;53.022;12.968;2022-09-27T07:22:33;20.10;55.80
15384;DHT22;7790;53.022;12.968;2022-09-27T07:26:38;20.20;55.80
15384;DHT22;7790;53.022;12.968;2022-09-27T07:30:42;20.30;55.90
15384;DHT22;7790;53.022;12.968;2022-09-27T07:34:43;20.40;55.90
15384;DHT22;7790;53.022;12.968;2022-09-27T07:38:45;20.50;55.80
15384;DHT22;7790;53.022;12.968;2022-09-27T07:42:46;20.60;55.80
15384;DHT22;7790;53.022;12.968;2022-09-27T07:46:48;20.60;55.70
15384;DHT22;7790;53.022;12.968;2022-09-27T07:50:52;20.70;55.60
15384;DHT22;7790;53.022;12.968;2022-09-27T07:55:13;20.70;55.50
15384;DHT22;7790;53.022;12.968;2022-09-27T07:59:30;20.80;55.30
15384;DHT22;7790;53.022;12.968;2022-09-27T08:03:31;20.80;55.20
15384;DHT22;7790;53.022;12.968;2022-09-27T08:07:33;20.80;55.10
15384;DHT22;7790;53.022;12.968;2022-09-27T08:11:35;20.90;55.00
15384;DHT22;7790;53.022;12.968;2022-09-27T08:15:37;20.90;55.00
15384;DHT22;7790;53.022;12.968;2022-09-27T08:19:42;21.00;54.90
15384;DHT22;7790;53.022;12.968;2022-09-27T08:24:20;21.10;55.00
15384;DHT22;7790;53.022;12.968;2022-09-27T08:28:47;21.20;54.90
15384;DHT22;7790;53.022;12.968;2022-09-27T08:32:58;21.20;54.80
15384;DHT22;7790;53.022;12.968;2022-09-27T08:36:59;21.30;54.80
15384;DHT22;7790;53.022;12.968;2022-09-27T08:50:22;21.40;54.50
15384;DHT22;7790;53.022;12.968;2022-09-27T08:54:30;21.50;54.40
15384;DHT22;7790;53.022;12.968;2022-09-27T08:58:52;21.50;54.70
15384;DHT22;7790;53.022;12.968;2022-09-27T09:03:03;21.50;54.20
15384;DHT22;7790;53.022;12.968;2022-09-27T09:07:28;21.50;54.00
15384;DHT22;7790;53.022;12.968;2022-09-27T09:16:28;21.60;53.90
15384;DHT22;7790;53.022;12.968;2022-09-27T09:33:28;21.90;53.90
15384;DHT22;7790;53.022;12.968;2022-09-27T09:37:37;22.00;53.90
15384;DHT22;7790;53.022;12.968;2022-09-27T09:42:04;22.00;53.90
15384;DHT22;7790;53.022;12.968;2022-09-27T09:46:34;21.90;50.50
15384;DHT22;7790;53.022;12.968;2022-09-27T09:50:42;21.80;51.80
15384;DHT22;7790;53.022;12.968;2022-09-27T09:55:05;21.80;51.60
15384;DHT22;7790;53.022;12.968;2022-09-27T09:59:25;21.80;51.80
15384;DHT22;7790;53.022;12.968;2022-09-27T10:03:28;21.80;52.10
15384;DHT22;7790;53.022;12.968;2022-09-27T10:07:31;21.80;51.70
15384;DHT22;7790;53.022;12.968;2022-09-27T10:11:39;21.80;51.80
15384;DHT22;7790;53.022;12.968;2022-09-27T10:16:03;21.70;51.80
15384;DHT22;7790;53.022;12.968;2022-09-27T10:20:07;21.70;51.60
15384;DHT22;7790;53.022;12.968;2022-09-27T10:24:16;21.70;51.60
15384;DHT22;7790;53.022;12.968;2022-09-27T10:28:36;21.70;51.50
15384;DHT22;7790;53.022;12.968;2022-09-27T10:32:38;21.60;51.60
15384;DHT22;7790;53.022;12.968;2022-09-27T10:45:38;21.50;51.70
15384;DHT22;7790;53.022;12.968;2022-09-27T10:49:45;21.50;51.90
15384;DHT22;7790;53.022;12.968;2022-09-27T10:53:59;21.50;51.90
15384;DHT22;7790;53.022;12.968;2022-09-27T10:58:05;21.50;52.00
15384;DHT22;7790;53.022;12.968;2022-09-27T11:02:21;21.50;52.10
15384;DHT22;7790;53.022;12.968;2022-09-27T11:06:48;21.40;52.20
15384;DHT22;7790;53.022;12.968;2022-09-27T11:15:16;21.40;52.20
15384;DHT22;7790;53.022;12.968;2022-09-27T11:24:01;21.40;52.30
15384;DHT22;7790;53.022;12.968;2022-09-27T11:46:04;21.50;52.80
15384;DHT22;7790;53.022;12.968;2022-09-27T12:11:52;21.40;52.90
15384;DHT22;7790;53.022;12.968;2022-09-27T12:15:55;21.40;53.00
15384;DHT22;7790;53.022;12.968;2022-09-27T12:20:13;21.40;53.00
15384;DHT22;7790;53.022;12.968;2022-09-27T12:24:21;21.40;53.00
15384;DHT22;7790;53.022;12.968;2022-09-27T12:37:32;21.40;53.10
15384;DHT22;7790;53.022;12.968;2022-09-27T12:41:38;21.40;53.20
15384;DHT22;7790;53.022;12.968;2022-09-27T13:11:25;21.30;53.40
15384;DHT22;7790;53.022;12.968;2022-09-27T13:15:31;21.30;53.40
15384;DHT22;7790;53.022;12.968;2022-09-27T13:19:43;21.30;53.40
15384;DHT22;7790;53.022;12.968;2022-09-27T13:23:49;21.30;53.40
15384;DHT22;7790;53.022;12.968;2022-09-27T13:27:50;21.30;53.40
15384;DHT22;7790;53.022;12.968;2022-09-27T13:36:31;21.20;53.30
15384;DHT22;7790;53.022;12.968;2022-09-27T13:40:42;21.20;53.80
15384;DHT22;7790;53.022;12.968;2022-09-27T13:45:19;21.20;53.40
15384;DHT22;7790;53.022;12.968;2022-09-27T13:49:31;21.20;53.40
15384;DHT22;7790;53.022;12.968;2022-09-27T13:53:55;21.10;53.30
15384;DHT22;7790;53.022;12.968;2022-09-27T13:58:03;21.20;53.40
15384;DHT22;7790;53.022;12.968;2022-09-27T14:02:26;21.10;53.40
15384;DHT22;7790;53.022;12.968;2022-09-27T14:06:32;21.10;53.50
15384;DHT22;7790;53.022;12.968;2022-09-27T14:10:35;21.10;53.50
15384;DHT22;7790;53.022;12.968;2022-09-27T14:14:37;21.10;53.50
15384;DHT22;7790;53.022;12.968;2022-09-27T14:18:55;21.10;53.60
15384;DHT22;7790;53.022;12.968;2022-09-27T14:23:21;21.10;53.60
15384;DHT22;7790;53.022;12.968;2022-09-27T14:27:26;21.10;53.60
15384;DHT22;7790;53.022;12.968;2022-09-27T14:31:34;21.10;53.60
15384;DHT22;7790;53.022;12.968;2022-09-27T14:35:35;21.10;53.70
15384;DHT22;7790;53.022;12.968;2022-09-27T14:40:04;21.10;53.60
15384;DHT22;7790;53.022;12.968;2022-09-27T14:44:19;21.00;53.50
15384;DHT22;7790;53.022;12.968;2022-09-27T14:48:22;21.00;53.60
15384;DHT22;7790;53.022;12.968;2022-09-27T14:52:29;21.00;53.60
15384;DHT22;7790;53.022;12.968;2022-09-27T14:56:33;21.00;53.60
15384;DHT22;7790;53.022;12.968;2022-09-27T15:00:36;20.50;51.10
15384;DHT22;7790;53.022;12.968;2022-09-27T15:04:42;20.20;51.30
15384;DHT22;7790;53.022;12.968;2022-09-27T15:08:46;20.40;53.30
15384;DHT22;7790;53.022;12.968;2022-09-27T15:12:50;20.70;52.70
15384;DHT22;7790;53.022;12.968;2022-09-27T15:16:55;21.00;53.00
15384;DHT22;7790;53.022;12.968;2022-09-27T15:21:00;21.20;53.20
15384;DHT22;7790;53.022;12.968;2022-09-27T15:29:34;21.50;53.30
15384;DHT22;7790;53.022;12.968;2022-09-27T15:33:35;21.60;53.60
15384;DHT22;7790;53.022;12.968;2022-09-27T15:37:37;21.70;53.60
15384;DHT22;7790;53.022;12.968;2022-09-27T15:46:04;21.90;53.60
15384;DHT22;7790;53.022;12.968;2022-09-27T15:54:19;22.00;53.50
15384;DHT22;7790;53.022;12.968;2022-09-27T15:58:20;22.10;53.40
15384;DHT22;7790;53.022;12.968;2022-09-27T16:02:21;22.20;53.40
15384;DHT22;7790;53.022;12.968;2022-09-27T16:06:25;22.20;53.20
15384;DHT22;7790;53.022;12.968;2022-09-27T16:10:35;22.30;53.10
15384;DHT22;7790;53.022;12.968;2022-09-27T16:14:37;22.40;53.00
15384;DHT22;7790;53.022;12.968;2022-09-27T16:18:38;22.40;52.90
15384;DHT22;7790;53.022;12.968;2022-09-27T16:22:39;22.50;52.80
15384;DHT22;7790;53.022;12.968;2022-09-27T16:26:40;22.50;53.20
15384;DHT22;7790;53.022;12.968;2022-09-27T16:30:41;22.50;52.60
15384;DHT22;7790;53.022;12.968;2022-09-27T16:34:41;22.60;52.60
15384;DHT22;7790;53.022;12.968;2022-09-27T16:38:42;22.60;52.40
15384;DHT22;7790;53.022;12.968;2022-09-27T16:42:43;22.60;52.40
15384;DHT22;7790;53.022;12.968;2022-09-27T16:46:44;22.60;52.40
15384;DHT22;7790;53.022;12.968;2022-09-27T16:50:48;22.60;52.30
15384;DHT22;7790;53.022;12.968;2022-09-27T16:55:08;22.60;52.30
15384;DHT22;7790;53.022;12.968;2022-09-27T16:59:09;22.60;52.20
15384;DHT22;7790;53.022;12.968;2022-09-27T17:03:09;22.70;52.20
15384;DHT22;7790;53.022;12.968;2022-09-27T17:07:11;22.70;52.20
15384;DHT22;7790;53.022;12.968;2022-09-27T17:11:16;22.70;52.10
15384;DHT22;7790;53.022;12.968;2022-09-27T17:15:17;22.80;52.20
15384;DHT22;7790;53.022;12.968;2022-09-27T17:19:18;22.90;52.10
15384;DHT22;7790;53.022;12.968;2022-09-27T17:23:19;22.90;52.10
15384;DHT22;7790;53.022;12.968;2022-09-27T17:27:20;22.90;52.20
15384;DHT22;7790;53.022;12.968;2022-09-27T17:31:21;22.90;52.10
15384;DHT22;7790;53.022;12.968;2022-09-27T17:35:22;22.90;52.10
15384;DHT22;7790;53.022;12.968;2022-09-27T17:39:23;22.90;52.10
15384;DHT22;7790;53.022;12.968;2022-09-27T17:43:24;22.90;52.00
15384;DHT22;7790;53.022;12.968;2022-09-27T17:47:26;22.90;52.10
15384;DHT22;7790;53.022;12.968;2022-09-27T17:52:01;22.90;52.10
15384;DHT22;7790;53.022;12.968;2022-09-27T17:56:02;22.80;52.00
15384;DHT22;7790;53.022;12.968;2022-09-27T18:00:03;22.80;52.00
15384;DHT22;7790;53.022;12.968;2022-09-27T18:04:15;22.80;52.00
15384;DHT22;7790;53.022;12.968;2022-09-27T18:08:16;22.80;52.00
15384;DHT22;7790;53.022;12.968;2022-09-27T18:12:17;22.70;51.80
15384;DHT22;7790;53.022;12.968;2022-09-27T18:16:20;22.70;51.80
15384;DHT22;7790;53.022;12.968;2022-09-27T18:20:21;22.70;51.80
15384;DHT22;7790;53.022;12.968;2022-09-27T18:24:22;22.70;51.90
15384;DHT22;7790;53.022;12.968;2022-09-27T18:28:26;22.60;51.80
15384;DHT22;7790;53.022;12.968;2022-09-27T18:32:27;22.60;51.80
15384;DHT22;7790;53.022;12.968;2022-09-27T18:36:28;22.60;51.80
15384;DHT22;7790;53.022;12.968;2022-09-27T18:40:29;22.50;51.80
15384;DHT22;7790;53.022;12.968;2022-09-27T18:44:30;22.50;51.90
15384;DHT22;7790;53.022;12.968;2022-09-27T18:48:32;22.50;51.90
15384;DHT22;7790;53.022;12.968;2022-09-27T18:52:33;22.40;51.90
15384;DHT22;7790;53.022;12.968;2022-09-27T18:56:35;22.40;51.90
15384;DHT22;7790;53.022;12.968;2022-09-27T19:00:39;22.30;52.00
15384;DHT22;7790;53.022;12.968;2022-09-27T19:04:40;22.30;51.90
15384;DHT22;7790;53.022;12.968;2022-09-27T19:08:42;22.30;51.90
15384;DHT22;7790;53.022;12.968;2022-09-27T19:12:43;22.20;51.90
15384;DHT22;7790;53.022;12.968;2022-09-27T19:16:44;22.20;51.90
15384;DHT22;7790;53.022;12.968;2022-09-27T19:20:46;22.20;51.80
15384;DHT22;7790;53.022;12.968;2022-09-27T19:24:47;22.20;51.80
15384;DHT22;7790;53.022;12.968;2022-09-27T19:28:48;22.20;51.80
15384;DHT22;7790;53.022;12.968;2022-09-27T19:32:49;22.10;51.70
15384;DHT22;7790;53.022;12.968;2022-09-27T19:36:52;22.10;51.80
15384;DHT22;7790;53.022;12.968;2022-09-27T19:40:52;22.10;51.70
15384;DHT22;7790;53.022;12.968;2022-09-27T19:44:54;22.10;51.80
15384;DHT22;7790;53.022;12.968;2022-09-27T19:48:54;22.00;51.70
15384;DHT22;7790;53.022;12.968;2022-09-27T19:52:56;22.00;51.70
15384;DHT22;7790;53.022;12.968;2022-09-27T19:56:57;22.00;51.80
15384;DHT22;7790;53.022;12.968;2022-09-27T20:01:01;21.90;51.70
15384;DHT22;7790;53.022;12.968;2022-09-27T20:05:03;21.90;51.80
15384;DHT22;7790;53.022;12.968;2022-09-27T20:09:04;21.90;51.80
15384;DHT22;7790;53.022;12.968;2022-09-27T20:13:05;21.90;51.80
15384;DHT22;7790;53.022;12.968;2022-09-27T20:17:05;21.80;51.80
15384;DHT22;7790;53.022;12.968;2022-09-27T20:21:07;21.80;51.80
15384;DHT22;7790;53.022;12.968;2022-09-27T20:25:08;21.80;51.90
15384;DHT22;7790;53.022;12.968;2022-09-27T20:29:09;21.80;51.80
15384;DHT22;7790;53.022;12.968;2022-09-27T20:33:10;21.70;51.80
15384;DHT22;7790;53.022;12.968;2022-09-27T20:37:29;21.70;51.90
15384;DHT22;7790;53.022;12.968;2022-09-27T20:41:33;21.70;51.90
15384;DHT22;7790;53.022;12.968;2022-09-27T20:45:34;21.60;51.90
15384;DHT22;7790;53.022;12.968;2022-09-27T20:49:35;21.60;51.90
15384;DHT22;7790;53.022;12.968;2022-09-27T20:53:36;21.60;52.00
15384;DHT22;7790;53.022;12.968;2022-09-27T20:57:37;21.60;52.00
15384;DHT22;7790;53.022;12.968;2022-09-27T21:01:40;21.60;52.00
15384;DHT22;7790;53.022;12.968;2022-09-27T21:05:41;21.50;52.00
15384;DHT22;7790;53.022;12.968;2022-09-27T21:09:42;21.50;52.00
15384;DHT22;7790;53.022;12.968;2022-09-27T21:13:44;21.50;52.00
15384;DHT22;7790;53.022;12.968;2022-09-27T21:17:45;21.50;52.10
15384;DHT22;7790;53.022;12.968;2022-09-27T21:21:46;21.40;52.00
15384;DHT22;7790;53.022;12.968;2022-09-27T21:25:47;21.40;52.10
15384;DHT22;7790;53.022;12.968;2022-09-27T21:29:50;21.40;52.10
15384;DHT22;7790;53.022;12.968;2022-09-27T21:33:52;21.40;52.10
15384;DHT22;7790;53.022;12.968;2022-09-27T21:37:54;21.30;52.10
15384;DHT22;7790;53.022;12.968;2022-09-27T21:41:55;21.30;52.10
15384;DHT22;7790;53.022;12.968;2022-09-27T21:46:04;21.30;52.20
15384;DHT22;7790;53.022;12.968;2022-09-27T21:50:06;21.30;52.20
15384;DHT22;7790;53.022;12.968;2022-09-27T21:54:10;21.30;52.20
15384;DHT22;7790;53.022;12.968;2022-09-27T21:58:11;21.20;52.20
15384;DHT22;7790;53.022;12.968;2022-09-27T22:02:13;21.20;52.20
15384;DHT22;7790;53.022;12.968;2022-09-27T22:06:16;21.20;52.20
15384;DHT22;7790;53.022;12.968;2022-09-27T22:10:18;21.20;52.20
15384;DHT22;7790;53.022;12.968;2022-09-27T22:14:19;21.20;52.30
15384;DHT22;7790;53.022;12.968;2022-09-27T22:18:20;21.20;52.30
15384;DHT22;7790;53.022;12.968;2022-09-27T22:22:21;21.10;52.30
15384;DHT22;7790;53.022;12.968;2022-09-27T22:26:24;21.10;52.30
15384;DHT22;7790;53.022;12.968;2022-09-27T22:30:25;21.10;52.30
15384;DHT22;7790;53.022;12.968;2022-09-27T22:34:26;21.10;52.30
15384;DHT22;7790;53.022;12.968;2022-09-27T22:38:31;21.10;52.30
15384;DHT22;7790;53.022;12.968;2022-09-27T22:42:32;21.00;52.30
15384;DHT22;7790;53.022;12.968;2022-09-27T22:46:32;21.00;52.30
15384;DHT22;7790;53.022;12.968;2022-09-27T22:50:33;21.00;52.30
15384;DHT22;7790;53.022;12.968;2022-09-27T22:54:34;21.00;52.40
15384;DHT22;7790;53.022;12.968;2022-09-27T22:58:36;21.00;52.40
15384;DHT22;7790;53.022;12.968;2022-09-27T23:02:37;21.00;52.40
15384;DHT22;7790;53.022;12.968;2022-09-27T23:06:38;21.00;52.40
15384;DHT22;7790;53.022;12.968;2022-09-27T23:10:39;21.00;52.40
15384;DHT22;7790;53.022;12.968;2022-09-27T23:14:40;20.90;52.40
15384;DHT22;7790;53.022;12.968;2022-09-27T23:18:41;20.90;52.40
15384;DHT22;7790;53.022;12.968;2022-09-27T23:22:42;20.90;52.40
15384;DHT22;7790;53.022;12.968;2022-09-27T23:26:43;20.90;52.40
15384;DHT22;7790;53.022;12.968;2022-09-27T23:30:44;20.90;52.50
15384;DHT22;7790;53.022;12.968;2022-09-27T23:34:45;20.90;52.40
15384;DHT22;7790;53.022;12.968;2022-09-27T23:38:46;20.80;52.40
15384;DHT22;7790;53.022;12.968;2022-09-27T23:42:48;20.80;52.40
15384;DHT22;7790;53.022;12.968;2022-09-27T23:46:49;20.80;52.40
15384;DHT22;7790;53.022;12.968;2022-09-27T23:50:51;20.80;52.40
15384;DHT22;7790;53.022;12.968;2022-09-27T23:54:52;20.80;52.40
15384;DHT22;7790;53.022;12.968;2022-09-27T23:58:53;20.80;52.50
